Time;durP1;ratioP1;P1;durP2;ratioP2;P2;SDS_P1;SDS_P2;PMS_P1;PMS_P2;Temp;Humidity;BMP_temperature;BMP_pressure;BME280_temperature;BME280_humidity;BME280_pressure;Samples;Min_cycle;Max_cycle;Signal;HPM_P1;HPM_P2
2022/06/04 00:01:00;;;;;;;2.83;1.50;;;;;;;;;;5025178;28;20215;-67
2022/06/04 00:03:28;;;;;;;3.20;1.40;;;;;;;;;;5024689;28;20226;-67
2022/06/04 00:05:56;;;;;;;1.83;1.30;;;;;;;;;;5022308;28;20865;-67
2022/06/04 00:08:24;;;;;;;1.93;1.40;;;;;;;;;;5025171;28;20199;-67
2022/06/04 00:16:26;;;;;;;1.87;1.40;;;;;;;;;;5014774;28;20241;-67
2022/06/04 00:18:53;;;;;;;1.73;1.23;;;;;;;;;;5023895;28;20195;-67
2022/06/04 00:21:21;;;;;;;2.17;1.50;;;;;;;;;;5020800;28;20504;-67
2022/06/04 00:23:49;;;;;;;2.30;1.50;;;;;;;;;;5024279;28;20207;-67
2022/06/04 00:26:16;;;;;;;2.50;1.40;;;;;;;;;;5023038;28;20199;-67
2022/06/04 00:28:46;;;;;;;2.00;1.23;;;;;;;;;;5032327;28;20706;-67
2022/06/04 00:31:14;;;;;;;4.50;1.40;;;;;;;;;;5026933;28;20218;-67
2022/06/04 00:33:41;;;;;;;1.73;1.20;;;;;;;;;;5051379;28;20206;-67
2022/06/04 00:36:08;;;;;;;3.80;1.33;;;;;;;;;;5034907;28;20288;-67
2022/06/04 00:38:36;;;;;;;1.97;1.40;;;;;;;;;;5048172;28;20244;-67
2022/06/04 00:41:15;;;;;;;1.43;1.33;;;;;;;;;;5040369;28;20206;-67
2022/06/04 00:44:01;;;;;;;2.07;1.30;;;;;;;;;;5028324;28;20190;-67
2022/06/04 00:46:40;;;;;;;2.60;1.70;;;;;;;;;;5046042;28;20216;-67
2022/06/04 00:49:08;;;;;;;2.67;1.40;;;;;;;;;;5042967;28;20217;-67
2022/06/04 00:51:36;;;;;;;2.87;1.50;;;;;;;;;;5040318;28;21170;-67
2022/06/04 00:54:04;;;;;;;1.57;1.33;;;;;;;;;;5045033;28;20202;-67
2022/06/04 00:56:40;;;;;;;2.47;1.70;;;;;;;;;;5045740;28;20190;-67
2022/06/04 00:59:26;;;;;;;1.37;1.23;;;;;;;;;;5037181;28;20201;-67
2022/06/04 01:02:11;;;;;;;1.40;1.13;;;;;;;;;;5040076;28;20202;-67
2022/06/04 01:04:55;;;;;;;1.47;1.20;;;;;;;;;;5046327;28;20205;-68
2022/06/04 01:07:43;;;;;;;1.47;1.30;;;;;;;;;;5043073;28;20206;-67
2022/06/04 01:10:37;;;;;;;3.13;1.57;;;;;;;;;;5046162;28;20232;-67
2022/06/04 01:13:16;;;;;;;1.60;1.40;;;;;;;;;;5042946;28;20238;-67
2022/06/04 01:16:02;;;;;;;1.97;1.30;;;;;;;;;;5044088;28;20206;-67
2022/06/04 01:18:36;;;;;;;2.40;1.30;;;;;;;;;;5024855;28;20209;-67
2022/06/04 01:21:22;;;;;;;1.70;1.40;;;;;;;;;;5040944;28;20565;-67
2022/06/04 01:24:08;;;;;;;2.93;1.40;;;;;;;;;;5038281;28;20226;-67
2022/06/04 01:26:35;;;;;;;1.73;1.30;;;;;;;;;;5024784;28;20305;-67
2022/06/04 01:29:16;;;;;;;1.97;1.33;;;;;;;;;;5050108;28;20198;-67
2022/06/04 01:31:46;;;;;;;1.77;1.20;;;;;;;;;;5033358;28;20459;-67
2022/06/04 01:34:17;;;;;;;3.07;1.67;;;;;;;;;;5045112;28;20190;-67
2022/06/04 01:36:47;;;;;;;1.73;1.30;;;;;;;;;;5042721;28;20211;-67
2022/06/04 01:39:20;;;;;;;2.10;1.30;;;;;;;;;;5050274;28;20203;-67
2022/06/04 01:41:50;;;;;;;2.23;1.53;;;;;;;;;;5045150;28;20730;-67
2022/06/04 01:44:19;;;;;;;2.87;1.30;;;;;;;;;;5026084;28;20708;-67
2022/06/04 01:46:51;;;;;;;2.07;1.27;;;;;;;;;;5045823;28;20202;-67
2022/06/04 01:49:27;;;;;;;1.20;1.10;;;;;;;;;;5042215;28;20295;-67
2022/06/04 01:52:03;;;;;;;1.80;1.27;;;;;;;;;;5043590;28;20218;-66
2022/06/04 01:54:33;;;;;;;1.80;1.40;;;;;;;;;;5045002;28;20691;-67
2022/06/04 01:57:02;;;;;;;1.90;1.43;;;;;;;;;;5044685;28;20220;-67
2022/06/04 01:59:33;;;;;;;1.67;1.47;;;;;;;;;;5038819;28;20653;-67
2022/06/04 02:02:04;;;;;;;2.67;1.50;;;;;;;;;;5043362;28;20202;-67
2022/06/04 02:04:37;;;;;;;1.70;1.60;;;;;;;;;;5046170;28;20189;-67
2022/06/04 02:09:56;;;;;;;1.37;1.00;;;;;;;;;;5051336;28;20330;-67
2022/06/04 02:12:24;;;;;;;2.10;1.30;;;;;;;;;;5024985;28;20234;-67
2022/06/04 02:14:51;;;;;;;2.20;1.50;;;;;;;;;;5018742;28;20210;-67
2022/06/04 02:17:22;;;;;;;1.50;1.23;;;;;;;;;;5042116;28;20194;-67
2022/06/04 02:19:49;;;;;;;2.63;1.20;;;;;;;;;;5038176;28;20249;-67
2022/06/04 02:22:16;;;;;;;2.57;1.40;;;;;;;;;;5044926;28;20324;-67
2022/06/04 02:24:45;;;;;;;3.03;1.23;;;;;;;;;;5044326;28;20215;-67
2022/06/04 02:27:12;;;;;;;3.33;1.27;;;;;;;;;;5040339;28;20194;-67
2022/06/04 02:29:40;;;;;;;1.83;1.40;;;;;;;;;;5040790;28;20434;-67
2022/06/04 02:32:07;;;;;;;1.63;1.47;;;;;;;;;;5043718;28;20353;-67
2022/06/04 02:34:53;;;;;;;3.73;1.40;;;;;;;;;;5042478;28;20221;-67
2022/06/04 02:37:42;;;;;;;1.70;1.60;;;;;;;;;;5027243;28;20210;-67
2022/06/04 02:40:25;;;;;;;1.97;1.50;;;;;;;;;;5042936;28;20277;-67
2022/06/04 02:42:52;;;;;;;2.20;1.50;;;;;;;;;;5025317;28;20186;-67
2022/06/04 02:45:27;;;;;;;2.90;1.60;;;;;;;;;;5055994;28;20191;-67
2022/06/04 02:47:56;;;;;;;1.70;1.30;;;;;;;;;;5019970;28;20469;-67
2022/06/04 02:50:29;;;;;;;2.57;1.40;;;;;;;;;;5046151;28;20199;-67
2022/06/04 02:52:57;;;;;;;1.93;1.40;;;;;;;;;;5041868;28;20214;-68
2022/06/04 02:55:26;;;;;;;3.67;1.40;;;;;;;;;;5045687;28;20651;-67
2022/06/04 02:57:56;;;;;;;2.10;1.50;;;;;;;;;;5043090;28;20628;-67
2022/06/04 03:00:25;;;;;;;2.97;1.70;;;;;;;;;;5054513;28;20207;-67
2022/06/04 03:02:52;;;;;;;1.90;1.47;;;;;;;;;;5047260;28;20206;-67
2022/06/04 03:05:22;;;;;;;1.93;1.50;;;;;;;;;;5044514;28;20205;-67
2022/06/04 03:07:51;;;;;;;4.50;1.77;;;;;;;;;;5049966;28;20221;-67
2022/06/04 03:10:20;;;;;;;1.90;1.53;;;;;;;;;;5045056;28;20215;-67
2022/06/04 03:12:48;;;;;;;2.67;1.60;;;;;;;;;;5041684;28;20676;-67
2022/06/04 03:15:15;;;;;;;1.70;1.60;;;;;;;;;;5047194;28;20202;-67
2022/06/04 03:17:44;;;;;;;2.37;1.63;;;;;;;;;;5047463;28;20622;-67
2022/06/04 03:20:13;;;;;;;2.30;1.63;;;;;;;;;;5052227;28;20221;-67
2022/06/04 03:22:40;;;;;;;2.63;1.50;;;;;;;;;;5048045;28;20193;-67
2022/06/04 03:25:07;;;;;;;4.73;1.60;;;;;;;;;;5045356;28;20222;-67
2022/06/04 03:27:35;;;;;;;3.27;1.70;;;;;;;;;;5045341;28;20192;-67
2022/06/04 03:30:02;;;;;;;1.70;1.57;;;;;;;;;;5053417;28;20194;-67
2022/06/04 03:32:30;;;;;;;2.00;1.30;;;;;;;;;;5045552;28;20683;-67
2022/06/04 03:34:57;;;;;;;3.20;1.90;;;;;;;;;;5048228;28;20202;-67
2022/06/04 03:37:24;;;;;;;3.40;1.80;;;;;;;;;;5042120;28;20288;-67
2022/06/04 03:39:51;;;;;;;2.43;1.63;;;;;;;;;;5046735;28;20580;-67
2022/06/04 03:42:19;;;;;;;3.53;1.73;;;;;;;;;;5050830;28;20660;-67
2022/06/04 03:44:49;;;;;;;2.73;1.67;;;;;;;;;;5047868;28;20209;-67
2022/06/04 03:47:16;;;;;;;2.60;1.80;;;;;;;;;;5041610;28;20201;-67
2022/06/04 03:49:44;;;;;;;2.53;1.50;;;;;;;;;;5040658;28;20587;-71
2022/06/04 03:52:11;;;;;;;2.53;1.50;;;;;;;;;;5047591;28;20284;-67
2022/06/04 03:54:54;;;;;;;2.83;2.00;;;;;;;;;;5043431;28;20527;-67
2022/06/04 03:57:38;;;;;;;3.60;1.63;;;;;;;;;;5039720;28;20642;-67
2022/06/04 04:00:09;;;;;;;2.57;1.77;;;;;;;;;;5034543;28;20222;-66
2022/06/04 04:02:36;;;;;;;3.00;1.80;;;;;;;;;;5040920;28;20240;-67
2022/06/04 04:05:05;;;;;;;3.77;1.90;;;;;;;;;;5044991;28;20209;-67
2022/06/04 04:07:32;;;;;;;4.57;2.00;;;;;;;;;;5044974;28;20198;-69
2022/06/04 04:10:00;;;;;;;2.03;1.83;;;;;;;;;;5029327;28;20210;-66
2022/06/04 04:12:28;;;;;;;2.77;1.80;;;;;;;;;;4991632;28;20226;-67
2022/06/04 04:14:56;;;;;;;2.67;1.50;;;;;;;;;;5042623;28;20191;-67
2022/06/04 04:17:23;;;;;;;2.77;1.63;;;;;;;;;;5043881;28;20190;-65
2022/06/04 04:19:51;;;;;;;2.27;1.70;;;;;;;;;;5048407;28;20264;-65
2022/06/04 04:22:19;;;;;;;2.07;1.67;;;;;;;;;;5022816;28;20222;-66
2022/06/04 04:24:46;;;;;;;2.67;1.80;;;;;;;;;;5041339;28;20276;-67
2022/06/04 04:27:14;;;;;;;3.77;2.17;;;;;;;;;;5046843;28;20719;-67
2022/06/04 04:29:41;;;;;;;3.20;1.97;;;;;;;;;;5044852;28;20227;-67
2022/06/04 04:32:09;;;;;;;3.37;1.90;;;;;;;;;;5046759;28;20235;-66
2022/06/04 04:34:36;;;;;;;2.10;1.60;;;;;;;;;;5029539;28;20277;-66
2022/06/04 04:37:06;;;;;;;1.90;1.80;;;;;;;;;;5044923;28;20729;-67
2022/06/04 04:39:37;;;;;;;4.53;2.00;;;;;;;;;;5044848;28;20194;-67
2022/06/04 04:42:08;;;;;;;3.43;2.07;;;;;;;;;;5045526;28;20194;-66
2022/06/04 04:44:40;;;;;;;2.77;2.10;;;;;;;;;;5045128;28;20217;-66
2022/06/04 04:47:11;;;;;;;2.43;1.70;;;;;;;;;;5045997;28;20275;-66
2022/06/04 04:49:44;;;;;;;1.90;1.80;;;;;;;;;;5041602;28;20212;-66
2022/06/04 04:52:15;;;;;;;1.97;1.70;;;;;;;;;;5046816;28;20689;-67
2022/06/04 04:54:48;;;;;;;3.27;2.00;;;;;;;;;;5029540;28;20209;-67
2022/06/04 04:57:38;;;;;;;3.40;1.80;;;;;;;;;;5044856;28;20205;-67
2022/06/04 05:00:09;;;;;;;3.13;1.70;;;;;;;;;;5035192;28;20218;-67
2022/06/04 05:02:42;;;;;;;3.70;1.90;;;;;;;;;;5010122;28;20234;-67
2022/06/04 05:05:15;;;;;;;3.53;2.20;;;;;;;;;;5040138;28;20206;-67
2022/06/04 05:07:46;;;;;;;2.40;1.83;;;;;;;;;;5029124;28;20212;-67
2022/06/04 05:10:15;;;;;;;2.63;1.93;;;;;;;;;;5046147;28;20199;-67
2022/06/04 05:12:46;;;;;;;3.00;2.17;;;;;;;;;;5026896;28;20284;-66
2022/06/04 05:15:14;;;;;;;2.20;2.00;;;;;;;;;;5036571;28;20195;-66
2022/06/04 05:17:41;;;;;;;2.77;2.07;;;;;;;;;;5044648;28;20214;-66
2022/06/04 05:20:09;;;;;;;3.53;2.50;;;;;;;;;;5046025;28;20545;-67
2022/06/04 05:22:36;;;;;;;4.03;2.50;;;;;;;;;;5051219;28;20194;-67
2022/06/04 05:25:03;;;;;;;3.13;2.10;;;;;;;;;;5024948;28;20824;-67
2022/06/04 05:27:31;;;;;;;6.00;2.37;;;;;;;;;;5040530;28;20198;-67
2022/06/04 05:29:58;;;;;;;3.57;1.90;;;;;;;;;;5024801;28;20787;-67
2022/06/04 05:32:25;;;;;;;3.03;1.80;;;;;;;;;;5042374;28;20294;-66
2022/06/04 05:34:53;;;;;;;2.30;2.10;;;;;;;;;;5045219;28;20590;-66
2022/06/04 05:37:20;;;;;;;3.33;2.50;;;;;;;;;;5038883;28;20203;-66
2022/06/04 05:39:47;;;;;;;4.70;2.03;;;;;;;;;;5045485;28;20183;-66
2022/06/04 05:42:14;;;;;;;4.33;2.73;;;;;;;;;;5038547;28;20194;-67
2022/06/04 05:44:41;;;;;;;3.00;2.23;;;;;;;;;;5044679;28;20194;-66
2022/06/04 05:47:09;;;;;;;3.70;2.53;;;;;;;;;;5034787;28;20280;-67
2022/06/04 05:49:37;;;;;;;4.33;2.40;;;;;;;;;;5029139;28;20778;-66
2022/06/04 05:52:04;;;;;;;3.00;2.30;;;;;;;;;;5041936;28;20206;-66
2022/06/04 05:54:32;;;;;;;2.33;2.00;;;;;;;;;;5042161;28;20255;-67
2022/06/04 05:56:59;;;;;;;2.13;1.93;;;;;;;;;;5045739;28;20240;-66
2022/06/04 05:59:31;;;;;;;3.50;2.00;;;;;;;;;;5021899;28;20190;-67
2022/06/04 06:01:59;;;;;;;2.10;1.90;;;;;;;;;;5043326;28;20318;-67
2022/06/04 06:04:26;;;;;;;3.47;2.40;;;;;;;;;;5044540;28;20878;-67
2022/06/04 06:06:54;;;;;;;4.00;2.30;;;;;;;;;;5044754;28;20255;-66
2022/06/04 06:09:22;;;;;;;5.60;2.57;;;;;;;;;;5044866;28;20245;-67
2022/06/04 06:11:50;;;;;;;3.53;2.40;;;;;;;;;;5027116;28;20210;-66
2022/06/04 06:14:18;;;;;;;4.20;2.60;;;;;;;;;;5049017;28;20226;-65
2022/06/04 06:16:46;;;;;;;3.00;2.37;;;;;;;;;;5046386;28;20192;-65
2022/06/04 06:19:14;;;;;;;4.63;2.70;;;;;;;;;;5048440;28;20248;-65
2022/06/04 06:21:45;;;;;;;3.57;2.10;;;;;;;;;;5048421;28;20207;-67
2022/06/04 06:24:16;;;;;;;2.43;2.13;;;;;;;;;;5031171;28;20208;-67
2022/06/04 06:26:49;;;;;;;3.17;2.00;;;;;;;;;;5046855;28;20201;-67
2022/06/04 06:29:18;;;;;;;2.43;2.23;;;;;;;;;;5046427;28;20201;-67
2022/06/04 06:31:46;;;;;;;2.30;2.07;;;;;;;;;;5047275;28;20619;-65
2022/06/04 06:34:14;;;;;;;2.33;2.03;;;;;;;;;;5049078;28;20222;-65
2022/06/04 06:36:42;;;;;;;7.40;2.80;;;;;;;;;;5047913;28;20218;-67
2022/06/04 06:39:09;;;;;;;3.30;2.60;;;;;;;;;;5045423;28;20198;-67
2022/06/04 06:41:36;;;;;;;4.80;3.20;;;;;;;;;;5043934;28;20191;-66
2022/06/04 06:44:04;;;;;;;4.90;3.03;;;;;;;;;;5047686;28;20609;-66
2022/06/04 06:46:31;;;;;;;4.03;2.80;;;;;;;;;;5049103;28;20186;-66
2022/06/04 06:49:00;;;;;;;2.87;2.40;;;;;;;;;;5043829;28;20222;-67
2022/06/04 06:51:29;;;;;;;4.00;2.30;;;;;;;;;;5046238;28;20210;-67
2022/06/04 06:53:57;;;;;;;3.00;2.30;;;;;;;;;;5033814;28;20344;-67
2022/06/04 06:56:34;;;;;;;4.30;3.03;;;;;;;;;;5049535;28;20213;-66
2022/06/04 06:59:03;;;;;;;3.20;2.50;;;;;;;;;;5049086;28;20259;-66
2022/06/04 07:01:31;;;;;;;5.07;3.00;;;;;;;;;;5041942;28;20224;-66
2022/06/04 07:03:59;;;;;;;5.17;2.97;;;;;;;;;;5046412;28;20202;-67
2022/06/04 07:06:31;;;;;;;3.23;2.60;;;;;;;;;;5044826;28;20199;-65
2022/06/04 07:08:59;;;;;;;3.03;2.50;;;;;;;;;;5048589;28;20287;-65
2022/06/04 07:11:26;;;;;;;7.03;2.47;;;;;;;;;;5041073;28;20218;-66
2022/06/04 07:13:54;;;;;;;3.10;2.80;;;;;;;;;;5047847;28;20632;-66
2022/06/04 07:16:24;;;;;;;3.40;2.60;;;;;;;;;;5046894;28;20254;-65
2022/06/04 07:18:58;;;;;;;3.73;2.63;;;;;;;;;;5049255;28;20202;-65
2022/06/04 07:21:30;;;;;;;5.87;3.50;;;;;;;;;;5047705;28;20251;-67
2022/06/04 07:24:02;;;;;;;5.77;3.23;;;;;;;;;;5026062;28;20206;-65
2022/06/04 07:26:34;;;;;;;6.87;3.73;;;;;;;;;;5046904;28;20420;-66
2022/06/04 07:29:01;;;;;;;7.30;3.83;;;;;;;;;;5046359;28;20641;-65
2022/06/04 07:31:32;;;;;;;10.13;3.83;;;;;;;;;;5041758;28;20198;-64
2022/06/04 07:34:04;;;;;;;7.53;3.87;;;;;;;;;;5030200;28;20199;-64
2022/06/04 07:36:43;;;;;;;5.30;3.53;;;;;;;;;;5044683;28;20207;-65
2022/06/04 07:39:19;;;;;;;5.73;3.30;;;;;;;;;;5028062;28;20191;-65
2022/06/04 07:41:51;;;;;;;4.70;3.30;;;;;;;;;;5045470;28;20190;-65
2022/06/04 07:44:18;;;;;;;5.27;3.50;;;;;;;;;;5043046;28;20232;-65
2022/06/04 07:46:47;;;;;;;5.60;3.97;;;;;;;;;;5047353;28;20195;-65
2022/06/04 07:49:14;;;;;;;5.50;3.80;;;;;;;;;;5025890;28;20214;-65
2022/06/04 07:51:42;;;;;;;4.10;3.67;;;;;;;;;;5041488;28;21865;-64
2022/06/04 07:54:10;;;;;;;7.53;3.50;;;;;;;;;;5027349;28;20290;-64
2022/06/04 07:56:38;;;;;;;6.07;4.03;;;;;;;;;;5046903;28;20244;-64
2022/06/04 07:59:06;;;;;;;5.93;4.27;;;;;;;;;;5047632;28;20240;-64
2022/06/04 08:01:37;;;;;;;5.10;3.80;;;;;;;;;;5041409;28;20280;-65
2022/06/04 08:04:10;;;;;;;6.23;3.97;;;;;;;;;;5029622;28;20211;-65
2022/06/04 08:06:47;;;;;;;4.30;3.90;;;;;;;;;;5047445;28;20217;-64
2022/06/04 08:09:17;;;;;;;5.60;4.23;;;;;;;;;;5047368;28;20201;-64
2022/06/04 08:11:49;;;;;;;6.43;4.23;;;;;;;;;;5043122;28;20845;-66
2022/06/04 08:14:25;;;;;;;5.93;4.47;;;;;;;;;;5046047;28;20351;-67
2022/06/04 08:16:56;;;;;;;6.63;4.13;;;;;;;;;;5045906;28;20248;-66
2022/06/04 08:19:28;;;;;;;8.90;4.07;;;;;;;;;;5026162;28;20199;-66
2022/06/04 08:21:55;;;;;;;5.33;4.27;;;;;;;;;;5044435;28;20202;-65
2022/06/04 08:24:23;;;;;;;5.87;4.53;;;;;;;;;;5044081;28;20210;-65
2022/06/04 08:26:53;;;;;;;4.37;3.97;;;;;;;;;;5046644;28;20205;-66
2022/06/04 08:29:21;;;;;;;7.60;3.90;;;;;;;;;;5041276;28;20229;-67
2022/06/04 08:31:49;;;;;;;12.40;4.80;;;;;;;;;;5046629;28;20280;-65
2022/06/04 08:34:16;;;;;;;9.07;4.43;;;;;;;;;;5046580;28;20255;-65
2022/06/04 08:36:43;;;;;;;4.93;4.43;;;;;;;;;;5046083;28;20218;-64
2022/06/04 08:39:11;;;;;;;6.63;4.57;;;;;;;;;;5048230;28;20194;-64
2022/06/04 08:41:42;;;;;;;5.30;4.13;;;;;;;;;;5042004;28;20944;-64
2022/06/04 08:44:09;;;;;;;5.30;3.57;;;;;;;;;;5040321;28;20201;-64
2022/06/04 08:46:39;;;;;;;12.80;4.67;;;;;;;;;;5033119;28;20199;-65
2022/06/04 08:49:11;;;;;;;13.97;4.87;;;;;;;;;;5039414;28;20215;-66
2022/06/04 08:51:39;;;;;;;14.03;5.20;;;;;;;;;;5022369;28;20624;-66
2022/06/04 08:59:50;;;;;;;26.73;9.33;;;;;;;;;;5043979;28;20211;-63
2022/06/04 09:02:23;;;;;;;25.00;9.47;;;;;;;;;;5038152;28;20218;-63
2022/06/04 09:05:13;;;;;;;19.90;7.47;;;;;;;;;;5039813;28;20196;-65
2022/06/04 09:07:42;;;;;;;12.80;5.83;;;;;;;;;;5039861;28;20202;-67
2022/06/04 09:10:12;;;;;;;14.13;6.33;;;;;;;;;;5046752;28;20260;-67
2022/06/04 09:12:45;;;;;;;11.97;5.70;;;;;;;;;;5039747;28;20218;-69
2022/06/04 09:15:18;;;;;;;11.10;4.83;;;;;;;;;;5046206;28;20233;-66
2022/06/04 09:17:53;;;;;;;15.33;4.97;;;;;;;;;;5045675;28;20261;-66
2022/06/04 09:20:39;;;;;;;15.23;4.83;;;;;;;;;;5043214;28;20599;-66
2022/06/04 09:23:06;;;;;;;11.20;4.73;;;;;;;;;;5040649;28;20569;-65
2022/06/04 09:25:38;;;;;;;5.67;4.13;;;;;;;;;;5041034;28;20209;-68
2022/06/04 09:28:11;;;;;;;9.20;4.17;;;;;;;;;;5042492;28;20194;-68
2022/06/04 09:30:41;;;;;;;6.00;4.07;;;;;;;;;;5026874;28;20190;-66
2022/06/04 09:33:19;;;;;;;6.47;3.93;;;;;;;;;;5026922;28;20549;-66
2022/06/04 09:35:47;;;;;;;7.00;4.30;;;;;;;;;;5041470;28;20382;-66
2022/06/04 09:38:41;;;;;;;6.37;4.80;;;;;;;;;;5043240;28;20214;-65
2022/06/04 09:41:19;;;;;;;5.90;4.00;;;;;;;;;;5038284;28;20279;-66
2022/06/04 09:43:47;;;;;;;5.23;4.00;;;;;;;;;;5040923;28;20256;-67
2022/06/04 09:46:14;;;;;;;6.10;4.50;;;;;;;;;;5044638;28;20190;-68
2022/06/04 09:48:50;;;;;;;6.60;4.50;;;;;;;;;;5039638;28;20823;-71
2022/06/04 09:51:27;;;;;;;6.93;4.83;;;;;;;;;;5044134;28;20859;-71
2022/06/04 09:54:03;;;;;;;5.97;5.07;;;;;;;;;;5047395;28;20202;-71
2022/06/04 09:56:30;;;;;;;5.47;4.67;;;;;;;;;;5048240;28;20197;-68
2022/06/04 09:59:07;;;;;;;4.87;4.30;;;;;;;;;;5047231;28;20644;-67
2022/06/04 10:01:34;;;;;;;6.43;4.50;;;;;;;;;;5042371;28;20213;-67
2022/06/04 10:04:04;;;;;;;7.27;5.07;;;;;;;;;;5049302;28;20204;-66
2022/06/04 10:06:37;;;;;;;15.30;6.13;;;;;;;;;;5047238;28;20194;-67
2022/06/04 10:12:05;;;;;;;10.50;5.97;;;;;;;;;;5045412;28;20268;-66
2022/06/04 10:14:34;;;;;;;7.23;5.47;;;;;;;;;;5046038;28;20247;-66
2022/06/04 10:17:02;;;;;;;6.80;5.03;;;;;;;;;;5050686;28;20205;-67
2022/06/04 10:19:30;;;;;;;7.00;4.83;;;;;;;;;;5015336;28;20251;-67
2022/06/04 10:22:10;;;;;;;10.57;5.47;;;;;;;;;;5046844;28;20189;-66
2022/06/04 10:24:48;;;;;;;8.37;4.80;;;;;;;;;;5038267;28;20221;-66
2022/06/04 10:27:27;;;;;;;8.77;4.80;;;;;;;;;;5032832;28;20194;-66
2022/06/04 10:30:00;;;;;;;5.53;4.00;;;;;;;;;;5033691;28;20698;-66
2022/06/04 10:32:31;;;;;;;5.10;4.53;;;;;;;;;;5050164;28;20234;-66
2022/06/04 10:35:18;;;;;;;10.23;4.73;;;;;;;;;;5056571;28;20234;-66
2022/06/04 10:37:53;;;;;;;6.13;4.67;;;;;;;;;;5067112;28;20182;-66
2022/06/04 10:40:40;;;;;;;7.37;5.30;;;;;;;;;;5072337;28;20186;-66
2022/06/04 10:43:35;;;;;;;5.07;3.87;;;;;;;;;;5057995;28;20236;-67
2022/06/04 10:46:20;;;;;;;6.00;3.73;;;;;;;;;;5060450;28;20285;-66
2022/06/04 10:49:00;;;;;;;7.20;4.20;;;;;;;;;;5045164;28;20315;-67
2022/06/04 10:51:27;;;;;;;5.17;3.63;;;;;;;;;;5046662;28;20718;-66
2022/06/04 10:53:55;;;;;;;8.00;4.40;;;;;;;;;;5046430;28;20233;-66
2022/06/04 10:56:28;;;;;;;8.60;5.13;;;;;;;;;;5030148;28;20187;-66
2022/06/04 10:59:02;;;;;;;10.27;5.43;;;;;;;;;;5044969;28;20217;-66
2022/06/04 11:01:50;;;;;;;10.60;5.13;;;;;;;;;;5027481;28;20668;-67
2022/06/04 11:04:48;;;;;;;6.20;5.00;;;;;;;;;;5035730;28;20202;-67
2022/06/04 11:07:24;;;;;;;8.73;5.13;;;;;;;;;;5046541;28;20205;-67
2022/06/04 11:09:52;;;;;;;15.90;5.93;;;;;;;;;;5047709;28;20217;-67
2022/06/04 11:12:31;;;;;;;9.27;6.17;;;;;;;;;;5029616;28;20281;-66
2022/06/04 11:15:03;;;;;;;7.07;5.37;;;;;;;;;;5042221;28;20306;-66
2022/06/04 11:17:41;;;;;;;9.53;5.60;;;;;;;;;;5044201;28;20636;-65
2022/06/04 11:20:13;;;;;;;9.07;6.00;;;;;;;;;;5041977;28;20186;-67
2022/06/04 11:22:44;;;;;;;7.67;5.30;;;;;;;;;;5038964;28;20268;-67
2022/06/04 11:25:24;;;;;;;7.60;5.10;;;;;;;;;;5045836;28;20267;-67
2022/06/04 11:27:58;;;;;;;7.80;5.70;;;;;;;;;;5047547;28;20186;-67
2022/06/04 11:30:47;;;;;;;7.40;5.17;;;;;;;;;;5046209;28;20827;-66
2022/06/04 11:33:26;;;;;;;6.37;5.10;;;;;;;;;;5044103;28;20226;-66
2022/06/04 11:36:06;;;;;;;6.07;5.37;;;;;;;;;;5045310;28;20221;-66
2022/06/04 11:38:42;;;;;;;6.77;4.30;;;;;;;;;;5045019;28;20194;-65
2022/06/04 11:41:21;;;;;;;8.27;4.80;;;;;;;;;;5046598;28;20198;-65
2022/06/04 11:43:54;;;;;;;4.80;4.10;;;;;;;;;;5046973;28;20200;-65
2022/06/04 11:46:45;;;;;;;5.30;4.63;;;;;;;;;;5048392;28;20198;-66
2022/06/04 11:49:34;;;;;;;9.03;4.70;;;;;;;;;;5043028;28;20229;-66
2022/06/04 11:52:12;;;;;;;4.73;4.23;;;;;;;;;;5046541;28;20594;-66
2022/06/04 11:54:55;;;;;;;5.57;4.40;;;;;;;;;;5042328;28;20264;-66
2022/06/04 11:57:25;;;;;;;4.73;4.27;;;;;;;;;;5044086;28;20194;-66
2022/06/04 12:00:12;;;;;;;7.13;5.60;;;;;;;;;;5044346;28;20690;-66
2022/06/04 12:02:39;;;;;;;7.10;6.20;;;;;;;;;;5042979;28;20404;-66
2022/06/04 12:05:25;;;;;;;7.90;5.00;;;;;;;;;;5047382;28;20276;-66
2022/06/04 12:07:54;;;;;;;5.13;4.30;;;;;;;;;;5046342;28;20248;-67
2022/06/04 12:10:40;;;;;;;4.90;4.40;;;;;;;;;;5046491;28;20886;-67
2022/06/04 12:13:08;;;;;;;6.23;5.47;;;;;;;;;;5038568;28;20210;-66
2022/06/04 12:15:39;;;;;;;6.93;4.97;;;;;;;;;;5035708;28;20281;-66
2022/06/04 12:18:30;;;;;;;7.60;5.00;;;;;;;;;;5040055;28;21675;-66
2022/06/04 12:26:38;;;;;;;6.20;4.80;;;;;;;;;;5047016;28;20834;-66
2022/06/04 12:29:25;;;;;;;5.20;4.70;;;;;;;;;;5044591;28;20202;-66
2022/06/04 12:31:59;;;;;;;4.83;4.17;;;;;;;;;;5045663;28;20222;-67
2022/06/04 12:34:30;;;;;;;9.23;4.73;;;;;;;;;;5039753;28;20291;-66
2022/06/04 12:36:57;;;;;;;4.80;4.37;;;;;;;;;;5041780;28;20222;-67
2022/06/04 12:39:29;;;;;;;5.80;5.20;;;;;;;;;;5044563;28;20194;-67
2022/06/04 12:42:02;;;;;;;4.30;4.00;;;;;;;;;;5042634;28;20686;-67
2022/06/04 12:44:32;;;;;;;4.57;4.17;;;;;;;;;;5041451;28;20313;-67
2022/06/04 12:47:18;;;;;;;6.70;4.50;;;;;;;;;;5047587;28;20237;-67
2022/06/04 12:49:54;;;;;;;4.70;4.30;;;;;;;;;;5035075;28;20222;-67
2022/06/04 12:52:36;;;;;;;12.67;4.27;;;;;;;;;;5046790;28;20186;-67
2022/06/04 12:55:08;;;;;;;5.13;4.40;;;;;;;;;;5046189;28;20217;-66
2022/06/04 12:57:44;;;;;;;4.80;4.40;;;;;;;;;;5054189;28;20205;-67
2022/06/04 13:00:17;;;;;;;7.03;5.40;;;;;;;;;;5041365;28;20218;-66
2022/06/04 13:03:00;;;;;;;4.90;4.47;;;;;;;;;;5037500;28;20191;-66
2022/06/04 13:05:27;;;;;;;5.73;4.37;;;;;;;;;;5023222;28;20251;-66
2022/06/04 13:08:07;;;;;;;4.87;4.33;;;;;;;;;;5043366;28;20279;-66
2022/06/04 13:10:56;;;;;;;5.90;5.17;;;;;;;;;;5045591;28;20248;-67
2022/06/04 13:13:43;;;;;;;5.13;4.63;;;;;;;;;;5041325;28;20264;-67
2022/06/04 13:16:29;;;;;;;6.20;4.57;;;;;;;;;;5037484;28;21241;-64
2022/06/04 13:19:07;;;;;;;4.93;4.50;;;;;;;;;;5042415;28;20201;-66
2022/06/04 13:21:39;;;;;;;4.70;4.30;;;;;;;;;;5040838;28;20186;-65
2022/06/04 13:24:16;;;;;;;5.27;4.20;;;;;;;;;;5043727;28;20238;-66
2022/06/04 13:27:08;;;;;;;4.20;3.90;;;;;;;;;;5031428;28;20214;-66
2022/06/04 13:29:42;;;;;;;5.60;3.50;;;;;;;;;;5041802;28;20186;-65
2022/06/04 13:32:19;;;;;;;3.80;3.50;;;;;;;;;;5044664;28;20238;-63
2022/06/04 13:34:49;;;;;;;4.13;3.70;;;;;;;;;;5025611;28;20294;-63
2022/06/04 13:37:40;;;;;;;4.73;3.57;;;;;;;;;;5031432;28;20423;-64
2022/06/04 13:40:13;;;;;;;3.70;3.50;;;;;;;;;;5045492;28;20202;-64
2022/06/04 13:42:43;;;;;;;3.87;3.57;;;;;;;;;;5044489;28;20214;-64
2022/06/04 13:45:10;;;;;;;4.20;3.80;;;;;;;;;;5047051;28;20191;-64
2022/06/04 13:47:49;;;;;;;4.30;3.90;;;;;;;;;;5039853;28;20636;-65
2022/06/04 13:50:19;;;;;;;4.87;3.70;;;;;;;;;;5044171;28;20239;-65
2022/06/04 13:52:49;;;;;;;3.63;3.33;;;;;;;;;;5041996;28;20264;-68
2022/06/04 13:55:19;;;;;;;4.37;3.97;;;;;;;;;;5043967;28;20268;-64
2022/06/04 13:57:48;;;;;;;4.30;3.90;;;;;;;;;;5041048;28;20672;-66
2022/06/04 14:00:15;;;;;;;4.23;3.40;;;;;;;;;;5021379;28;20214;-66
2022/06/04 14:02:44;;;;;;;6.00;3.50;;;;;;;;;;5043551;28;20186;-65
2022/06/04 14:08:07;;;;;;;4.00;3.60;;;;;;;;;;5047017;28;20233;-66
2022/06/04 14:10:35;;;;;;;3.67;3.10;;;;;;;;;;5042282;28;20190;-66
2022/06/04 14:13:09;;;;;;;3.63;3.10;;;;;;;;;;5042093;28;20210;-66
2022/06/04 14:15:49;;;;;;;3.20;3.00;;;;;;;;;;5040034;28;20210;-66
2022/06/04 14:18:25;;;;;;;4.33;3.73;;;;;;;;;;5043768;28;20233;-66
2022/06/04 14:21:02;;;;;;;4.17;3.20;;;;;;;;;;5043743;28;20182;-66
2022/06/04 14:23:29;;;;;;;4.23;3.60;;;;;;;;;;5040248;28;20198;-67
2022/06/04 14:26:09;;;;;;;4.30;3.17;;;;;;;;;;5042882;28;20651;-66
2022/06/04 14:28:43;;;;;;;5.07;3.73;;;;;;;;;;5048862;28;20202;-66
2022/06/04 14:31:29;;;;;;;3.83;3.30;;;;;;;;;;5044423;28;20191;-66
2022/06/04 14:33:58;;;;;;;3.63;3.07;;;;;;;;;;5045295;28;20240;-66
2022/06/04 14:36:26;;;;;;;7.80;3.37;;;;;;;;;;5024297;28;20317;-67
2022/06/04 14:38:54;;;;;;;3.40;3.10;;;;;;;;;;5040127;28;20345;-66
2022/06/04 14:41:21;;;;;;;3.40;3.10;;;;;;;;;;5024754;28;20571;-66
2022/06/04 14:43:48;;;;;;;3.40;3.10;;;;;;;;;;5049702;28;20240;-66
2022/06/04 14:46:22;;;;;;;4.67;3.50;;;;;;;;;;5043270;28;20186;-66
2022/06/04 14:48:55;;;;;;;3.63;2.87;;;;;;;;;;5046592;28;20662;-65
2022/06/04 14:51:34;;;;;;;3.50;3.20;;;;;;;;;;5046122;28;20194;-66
2022/06/04 14:54:05;;;;;;;5.57;3.20;;;;;;;;;;5046918;28;20198;-66
2022/06/04 14:56:41;;;;;;;3.63;3.33;;;;;;;;;;5047825;28;20214;-66
2022/06/04 14:59:08;;;;;;;3.73;2.97;;;;;;;;;;5048156;28;20239;-66
2022/06/04 15:01:54;;;;;;;4.07;3.03;;;;;;;;;;5043530;28;20206;-65
2022/06/04 15:04:40;;;;;;;3.40;3.10;;;;;;;;;;5048342;28;20272;-65
2022/06/04 15:07:31;;;;;;;4.13;3.33;;;;;;;;;;5047560;28;20198;-66
2022/06/04 15:10:25;;;;;;;3.67;3.37;;;;;;;;;;5046874;28;20275;-66
2022/06/04 15:13:02;;;;;;;3.40;3.10;;;;;;;;;;5041924;28;20206;-66
2022/06/04 15:15:44;;;;;;;6.13;3.40;;;;;;;;;;5043672;28;20309;-66
2022/06/04 15:18:11;;;;;;;3.50;3.20;;;;;;;;;;5046991;28;20202;-66
2022/06/04 15:20:48;;;;;;;3.80;3.50;;;;;;;;;;5046758;28;20256;-66
2022/06/04 15:23:34;;;;;;;5.47;3.80;;;;;;;;;;5036165;28;20206;-66
2022/06/04 15:26:10;;;;;;;3.67;3.20;;;;;;;;;;5038616;28;20230;-66
2022/06/04 15:34:20;;;;;;;5.40;3.13;;;;;;;;;;5045809;28;20202;-66
2022/06/04 15:37:10;;;;;;;4.07;2.97;;;;;;;;;;5042330;28;20254;-66
2022/06/04 15:39:58;;;;;;;5.80;3.40;;;;;;;;;;5021110;28;20268;-66
2022/06/04 15:42:40;;;;;;;4.73;3.00;;;;;;;;;;5044675;28;20217;-66
2022/06/04 15:45:21;;;;;;;5.93;3.63;;;;;;;;;;5042697;28;20195;-66
2022/06/04 15:47:57;;;;;;;3.30;3.00;;;;;;;;;;5028295;28;20206;-65